sensor_id;sensor_type;location;lat;lon;timestamp;pressure;altitude;pressure_sealevel;temperature;humidity
12172;BME280;6149;52.418;13.668;2022-08-01T00:01:16;100768.19;;;22.16;63.01
12172;BME280;6149;52.418;13.668;2022-08-01T00:03:43;100773.47;;;22.08;63.41
12172;BME280;6149;52.418;13.668;2022-08-01T00:06:09;100773.47;;;22.08;63.41
12172;BME280;6149;52.418;13.668;2022-08-01T00:08:36;100772.34;;;22.00;63.80
12172;BME280;6149;52.418;13.668;2022-08-01T00:11:02;100779.31;;;22.03;63.85
12172;BME280;6149;52.418;13.668;2022-08-01T00:13:29;100773.50;;;21.98;63.95
12172;BME280;6149;52.418;13.668;2022-08-01T00:15:57;100774.50;;;21.97;64.59
12172;BME280;6149;52.418;13.668;2022-08-01T00:18:23;100769.72;;;21.91;64.79
12172;BME280;6149;52.418;13.668;2022-08-01T00:20:50;100764.31;;;21.91;64.93
12172;BME280;6149;52.418;13.668;2022-08-01T00:23:16;100755.56;;;21.89;64.86
12172;BME280;6149;52.418;13.668;2022-08-01T00:25:43;100758.28;;;21.89;65.32
12172;BME280;6149;52.418;13.668;2022-08-01T00:28:09;100759.72;;;21.83;65.70
12172;BME280;6149;52.418;13.668;2022-08-01T00:30:36;100772.19;;;21.84;65.75
12172;BME280;6149;52.418;13.668;2022-08-01T00:33:04;100777.56;;;21.84;66.41
12172;BME280;6149;52.418;13.668;2022-08-01T00:35:31;100770.53;;;21.74;66.65
12172;BME280;6149;52.418;13.668;2022-08-01T00:37:57;100775.22;;;21.72;66.47
12172;BME280;6149;52.418;13.668;2022-08-01T00:40:24;100774.81;;;21.66;67.51
12172;BME280;6149;52.418;13.668;2022-08-01T00:42:50;100778.50;;;21.65;67.24
12172;BME280;6149;52.418;13.668;2022-08-01T00:45:17;100785.56;;;21.66;67.50
12172;BME280;6149;52.418;13.668;2022-08-01T00:47:44;100773.41;;;21.62;67.78
12172;BME280;6149;52.418;13.668;2022-08-01T00:50:12;100776.25;;;21.61;67.89
12172;BME280;6149;52.418;13.668;2022-08-01T00:52:39;100769.31;;;21.58;68.12
12172;BME280;6149;52.418;13.668;2022-08-01T00:55:08;100769.88;;;21.62;68.86
12172;BME280;6149;52.418;13.668;2022-08-01T00:57:35;100778.38;;;21.57;68.58
12172;BME280;6149;52.418;13.668;2022-08-01T01:00:04;100779.34;;;21.66;68.46
12172;BME280;6149;52.418;13.668;2022-08-01T01:02:32;100774.69;;;21.58;68.99
12172;BME280;6149;52.418;13.668;2022-08-01T01:05:00;100792.13;;;21.54;69.15
12172;BME280;6149;52.418;13.668;2022-08-01T01:07:32;100773.63;;;21.51;70.02
12172;BME280;6149;52.418;13.668;2022-08-01T01:10:09;100778.84;;;21.53;70.18
12172;BME280;6149;52.418;13.668;2022-08-01T01:12:50;100773.75;;;21.50;71.32
12172;BME280;6149;52.418;13.668;2022-08-01T01:15:26;100770.66;;;21.45;71.78
12172;BME280;6149;52.418;13.668;2022-08-01T01:18:00;100769.66;;;21.46;72.08
12172;BME280;6149;52.418;13.668;2022-08-01T01:20:32;100763.72;;;21.42;72.41
12172;BME280;6149;52.418;13.668;2022-08-01T01:23:18;100771.25;;;21.39;72.67
12172;BME280;6149;52.418;13.668;2022-08-01T01:26:09;100767.00;;;21.36;73.08
12172;BME280;6149;52.418;13.668;2022-08-01T01:29:04;100764.75;;;21.31;73.23
12172;BME280;6149;52.418;13.668;2022-08-01T01:31:36;100764.19;;;21.28;73.36
12172;BME280;6149;52.418;13.668;2022-08-01T01:34:09;100765.34;;;21.25;73.85
12172;BME280;6149;52.418;13.668;2022-08-01T01:36:39;100759.94;;;21.25;73.92
12172;BME280;6149;52.418;13.668;2022-08-01T01:39:06;100756.69;;;21.22;74.34
12172;BME280;6149;52.418;13.668;2022-08-01T01:41:35;100754.13;;;21.20;73.97
12172;BME280;6149;52.418;13.668;2022-08-01T01:44:05;100759.50;;;21.20;74.40
12172;BME280;6149;52.418;13.668;2022-08-01T01:46:33;100755.13;;;21.19;74.40
12172;BME280;6149;52.418;13.668;2022-08-01T01:49:01;100749.88;;;21.18;74.91
12172;BME280;6149;52.418;13.668;2022-08-01T01:51:29;100750.88;;;21.17;74.75
12172;BME280;6149;52.418;13.668;2022-08-01T01:53:57;100748.38;;;21.15;75.38
12172;BME280;6149;52.418;13.668;2022-08-01T01:56:25;100751.50;;;21.11;75.60
12172;BME280;6149;52.418;13.668;2022-08-01T01:58:54;100750.78;;;21.09;76.04
12172;BME280;6149;52.418;13.668;2022-08-01T02:01:27;100759.84;;;21.08;75.99
12172;BME280;6149;52.418;13.668;2022-08-01T02:03:56;100759.00;;;21.07;76.01
12172;BME280;6149;52.418;13.668;2022-08-01T02:06:24;100752.78;;;21.07;76.04
12172;BME280;6149;52.418;13.668;2022-08-01T02:08:52;100760.00;;;21.06;76.49
12172;BME280;6149;52.418;13.668;2022-08-01T02:11:19;100767.34;;;21.04;77.04
12172;BME280;6149;52.418;13.668;2022-08-01T02:13:50;100774.56;;;21.03;77.28
12172;BME280;6149;52.418;13.668;2022-08-01T02:16:24;100769.34;;;21.02;77.30
12172;BME280;6149;52.418;13.668;2022-08-01T02:18:52;100776.69;;;21.00;77.42
12172;BME280;6149;52.418;13.668;2022-08-01T02:21:25;100768.06;;;20.96;77.65
12172;BME280;6149;52.418;13.668;2022-08-01T02:23:55;100772.88;;;20.93;77.58
12172;BME280;6149;52.418;13.668;2022-08-01T02:26:27;100773.03;;;20.91;77.60
12172;BME280;6149;52.418;13.668;2022-08-01T02:28:57;100764.97;;;20.91;78.25
12172;BME280;6149;52.418;13.668;2022-08-01T02:31:31;100768.06;;;20.87;78.53
12172;BME280;6149;52.418;13.668;2022-08-01T02:34:06;100767.78;;;20.80;79.48
12172;BME280;6149;52.418;13.668;2022-08-01T02:36:34;100766.41;;;20.76;79.76
12172;BME280;6149;52.418;13.668;2022-08-01T02:39:03;100769.38;;;20.73;80.58
12172;BME280;6149;52.418;13.668;2022-08-01T02:41:38;100766.69;;;20.63;81.69
12172;BME280;6149;52.418;13.668;2022-08-01T02:44:09;100773.34;;;20.59;82.71
12172;BME280;6149;52.418;13.668;2022-08-01T02:46:43;100766.13;;;20.50;83.55
12172;BME280;6149;52.418;13.668;2022-08-01T02:49:16;100765.97;;;20.42;83.92
12172;BME280;6149;52.418;13.668;2022-08-01T02:51:45;100765.81;;;20.34;84.59
12172;BME280;6149;52.418;13.668;2022-08-01T02:54:15;100776.00;;;20.30;84.67
12172;BME280;6149;52.418;13.668;2022-08-01T02:56:43;100778.25;;;20.25;85.48
12172;BME280;6149;52.418;13.668;2022-08-01T02:59:13;100776.97;;;20.20;85.68
12172;BME280;6149;52.418;13.668;2022-08-01T03:01:44;100771.72;;;20.18;85.61
12172;BME280;6149;52.418;13.668;2022-08-01T03:04:12;100776.13;;;20.19;85.79
12172;BME280;6149;52.418;13.668;2022-08-01T03:06:39;100770.16;;;20.16;86.14
12172;BME280;6149;52.418;13.668;2022-08-01T03:09:06;100775.25;;;20.19;86.70
12172;BME280;6149;52.418;13.668;2022-08-01T03:11:37;100771.56;;;20.10;87.41
12172;BME280;6149;52.418;13.668;2022-08-01T03:14:07;100771.13;;;20.05;87.37
12172;BME280;6149;52.418;13.668;2022-08-01T03:16:38;100773.13;;;20.03;87.24
12172;BME280;6149;52.418;13.668;2022-08-01T03:19:09;100781.31;;;20.01;87.57
12172;BME280;6149;52.418;13.668;2022-08-01T03:21:38;100780.75;;;19.98;87.99
12172;BME280;6149;52.418;13.668;2022-08-01T03:24:06;100779.47;;;19.92;88.65
12172;BME280;6149;52.418;13.668;2022-08-01T03:26:36;100778.16;;;19.87;89.11
12172;BME280;6149;52.418;13.668;2022-08-01T03:29:06;100775.47;;;19.87;88.89
12172;BME280;6149;52.418;13.668;2022-08-01T03:31:38;100780.69;;;19.79;90.16
12172;BME280;6149;52.418;13.668;2022-08-01T03:34:09;100781.34;;;19.71;90.47
12172;BME280;6149;52.418;13.668;2022-08-01T03:36:42;100780.81;;;19.67;90.44
12172;BME280;6149;52.418;13.668;2022-08-01T03:39:12;100783.63;;;19.66;90.51
12172;BME280;6149;52.418;13.668;2022-08-01T03:41:45;100787.56;;;19.62;91.96
12172;BME280;6149;52.418;13.668;2022-08-01T03:44:16;100786.56;;;19.63;91.02
12172;BME280;6149;52.418;13.668;2022-08-01T03:46:48;100786.13;;;19.58;91.25
12172;BME280;6149;52.418;13.668;2022-08-01T03:49:23;100800.66;;;19.55;91.88
12172;BME280;6149;52.418;13.668;2022-08-01T03:51:54;100791.16;;;19.51;92.49
12172;BME280;6149;52.418;13.668;2022-08-01T03:54:23;100799.22;;;19.51;92.28
12172;BME280;6149;52.418;13.668;2022-08-01T03:56:51;100793.72;;;19.53;92.78
12172;BME280;6149;52.418;13.668;2022-08-01T03:59:19;100792.88;;;19.52;93.18
12172;BME280;6149;52.418;13.668;2022-08-01T04:01:47;100791.28;;;19.50;93.35
12172;BME280;6149;52.418;13.668;2022-08-01T04:04:14;100800.91;;;19.52;93.47
12172;BME280;6149;52.418;13.668;2022-08-01T04:06:42;100799.09;;;19.53;93.44
12172;BME280;6149;52.418;13.668;2022-08-01T04:09:10;100804.31;;;19.54;93.72
12172;BME280;6149;52.418;13.668;2022-08-01T04:11:38;100806.88;;;19.56;93.97
12172;BME280;6149;52.418;13.668;2022-08-01T04:14:04;100803.06;;;19.58;94.32
12172;BME280;6149;52.418;13.668;2022-08-01T04:16:31;100807.44;;;19.59;94.07
12172;BME280;6149;52.418;13.668;2022-08-01T04:18:57;100805.47;;;19.61;94.15
12172;BME280;6149;52.418;13.668;2022-08-01T04:21:25;100808.16;;;19.61;94.52
12172;BME280;6149;52.418;13.668;2022-08-01T04:23:57;100803.78;;;19.60;94.78
12172;BME280;6149;52.418;13.668;2022-08-01T04:26:26;100812.16;;;19.67;94.20
12172;BME280;6149;52.418;13.668;2022-08-01T04:28:54;100808.75;;;19.65;94.92
12172;BME280;6149;52.418;13.668;2022-08-01T04:31:22;100810.44;;;19.66;94.58
12172;BME280;6149;52.418;13.668;2022-08-01T04:33:53;100811.97;;;19.68;94.79
12172;BME280;6149;52.418;13.668;2022-08-01T04:36:23;100803.53;;;19.73;94.56
12172;BME280;6149;52.418;13.668;2022-08-01T04:38:52;100818.25;;;19.79;94.92
12172;BME280;6149;52.418;13.668;2022-08-01T04:41:24;100806.13;;;19.84;94.34
12172;BME280;6149;52.418;13.668;2022-08-01T04:43:52;100803.16;;;19.87;95.15
12172;BME280;6149;52.418;13.668;2022-08-01T04:46:20;100801.19;;;19.89;95.75
12172;BME280;6149;52.418;13.668;2022-08-01T04:48:48;100807.16;;;19.93;94.82
12172;BME280;6149;52.418;13.668;2022-08-01T04:51:16;100811.25;;;19.97;95.00
12172;BME280;6149;52.418;13.668;2022-08-01T04:53:47;100808.31;;;20.10;93.81
12172;BME280;6149;52.418;13.668;2022-08-01T04:56:17;100813.41;;;20.13;93.79
12172;BME280;6149;52.418;13.668;2022-08-01T04:58:46;100816.09;;;20.13;93.54
12172;BME280;6149;52.418;13.668;2022-08-01T05:01:13;100815.94;;;20.14;93.58
12172;BME280;6149;52.418;13.668;2022-08-01T05:03:40;100816.53;;;20.18;93.41
12172;BME280;6149;52.418;13.668;2022-08-01T05:06:07;100814.69;;;20.18;94.39
12172;BME280;6149;52.418;13.668;2022-08-01T05:08:34;100819.94;;;20.20;93.59
12172;BME280;6149;52.418;13.668;2022-08-01T05:11:01;100820.22;;;20.26;93.49
12172;BME280;6149;52.418;13.668;2022-08-01T05:13:32;100822.63;;;20.29;93.45
12172;BME280;6149;52.418;13.668;2022-08-01T05:15:59;100824.91;;;20.34;93.87
12172;BME280;6149;52.418;13.668;2022-08-01T05:18:28;100821.09;;;20.36;93.44
12172;BME280;6149;52.418;13.668;2022-08-01T05:20:55;100827.31;;;20.37;93.79
12172;BME280;6149;52.418;13.668;2022-08-01T05:23:22;100823.41;;;20.41;93.45
12172;BME280;6149;52.418;13.668;2022-08-01T05:25:48;100827.75;;;20.42;93.88
12172;BME280;6149;52.418;13.668;2022-08-01T05:28:15;100830.31;;;20.44;93.79
12172;BME280;6149;52.418;13.668;2022-08-01T05:30:43;100833.84;;;20.44;93.52
12172;BME280;6149;52.418;13.668;2022-08-01T05:33:09;100837.38;;;20.45;94.06
12172;BME280;6149;52.418;13.668;2022-08-01T05:35:36;100828.47;;;20.44;94.21
12172;BME280;6149;52.418;13.668;2022-08-01T05:38:03;100837.38;;;20.45;94.07
12172;BME280;6149;52.418;13.668;2022-08-01T05:40:29;100833.00;;;20.44;94.37
12172;BME280;6149;52.418;13.668;2022-08-01T05:42:56;100830.63;;;20.41;95.02
12172;BME280;6149;52.418;13.668;2022-08-01T05:45:22;100827.63;;;20.44;94.76
12172;BME280;6149;52.418;13.668;2022-08-01T05:47:50;100833.56;;;20.47;94.75
12172;BME280;6149;52.418;13.668;2022-08-01T05:50:17;100841.22;;;20.52;94.79
12172;BME280;6149;52.418;13.668;2022-08-01T05:52:43;100837.38;;;20.45;96.03
12172;BME280;6149;52.418;13.668;2022-08-01T05:55:10;100829.31;;;20.45;95.80
12172;BME280;6149;52.418;13.668;2022-08-01T05:57:36;100835.81;;;20.42;96.19
12172;BME280;6149;52.418;13.668;2022-08-01T06:00:04;100835.00;;;20.42;96.40
12172;BME280;6149;52.418;13.668;2022-08-01T06:02:32;100840.63;;;20.48;96.39
12172;BME280;6149;52.418;13.668;2022-08-01T06:04:59;100842.47;;;20.48;96.65
12172;BME280;6149;52.418;13.668;2022-08-01T06:07:26;100847.88;;;20.57;96.13
12172;BME280;6149;52.418;13.668;2022-08-01T06:09:53;100845.91;;;20.59;96.07
12172;BME280;6149;52.418;13.668;2022-08-01T06:12:19;100846.59;;;20.61;96.15
12172;BME280;6149;52.418;13.668;2022-08-01T06:14:46;100852.84;;;20.62;96.40
12172;BME280;6149;52.418;13.668;2022-08-01T06:17:12;100855.25;;;20.65;96.17
12172;BME280;6149;52.418;13.668;2022-08-01T06:19:39;100853.97;;;20.69;96.54
12172;BME280;6149;52.418;13.668;2022-08-01T06:22:07;100860.06;;;20.71;96.18
12172;BME280;6149;52.418;13.668;2022-08-01T06:24:33;100852.28;;;20.78;95.77
12172;BME280;6149;52.418;13.668;2022-08-01T06:27:00;100856.50;;;20.90;95.42
12172;BME280;6149;52.418;13.668;2022-08-01T06:29:26;100858.63;;;21.06;94.39
12172;BME280;6149;52.418;13.668;2022-08-01T06:31:53;100865.41;;;21.19;93.45
12172;BME280;6149;52.418;13.668;2022-08-01T06:34:19;100864.44;;;21.11;93.83
12172;BME280;6149;52.418;13.668;2022-08-01T06:36:47;100861.19;;;21.07;93.39
12172;BME280;6149;52.418;13.668;2022-08-01T06:39:15;100874.22;;;21.02;93.81
12172;BME280;6149;52.418;13.668;2022-08-01T06:41:41;100871.94;;;21.07;93.95
12172;BME280;6149;52.418;13.668;2022-08-01T06:44:11;100866.53;;;21.17;93.09
12172;BME280;6149;52.418;13.668;2022-08-01T06:46:38;100861.00;;;21.18;93.18
12172;BME280;6149;52.418;13.668;2022-08-01T06:49:04;100867.56;;;21.25;93.01
12172;BME280;6149;52.418;13.668;2022-08-01T06:51:31;100863.56;;;21.39;91.68
12172;BME280;6149;52.418;13.668;2022-08-01T06:53:57;100868.41;;;21.35;92.10
12172;BME280;6149;52.418;13.668;2022-08-01T06:56:25;100866.41;;;21.38;92.33
12172;BME280;6149;52.418;13.668;2022-08-01T06:58:52;100867.25;;;21.38;91.95
12172;BME280;6149;52.418;13.668;2022-08-01T07:01:21;100861.44;;;21.43;91.38
12172;BME280;6149;52.418;13.668;2022-08-01T07:03:48;100854.94;;;21.45;91.25
12172;BME280;6149;52.418;13.668;2022-08-01T07:06:14;100865.97;;;21.42;91.59
12172;BME280;6149;52.418;13.668;2022-08-01T07:08:41;100863.28;;;21.42;92.80
12172;BME280;6149;52.418;13.668;2022-08-01T07:11:08;100867.84;;;21.32;93.41
12172;BME280;6149;52.418;13.668;2022-08-01T07:13:36;100870.53;;;21.22;94.09
12172;BME280;6149;52.418;13.668;2022-08-01T07:16:03;100863.69;;;21.18;93.89
12172;BME280;6149;52.418;13.668;2022-08-01T07:18:30;100873.78;;;21.16;94.33
12172;BME280;6149;52.418;13.668;2022-08-01T07:20:56;100875.31;;;21.19;94.56
12172;BME280;6149;52.418;13.668;2022-08-01T07:23:23;100869.69;;;21.22;94.47
12172;BME280;6149;52.418;13.668;2022-08-01T07:25:49;100872.47;;;21.20;94.88
12172;BME280;6149;52.418;13.668;2022-08-01T07:28:17;100875.34;;;21.28;94.61
12172;BME280;6149;52.418;13.668;2022-08-01T07:30:45;100872.66;;;21.28;94.75
12172;BME280;6149;52.418;13.668;2022-08-01T07:33:12;100876.19;;;21.29;93.99
12172;BME280;6149;52.418;13.668;2022-08-01T07:35:39;100880.44;;;21.31;93.65
12172;BME280;6149;52.418;13.668;2022-08-01T07:38:06;100877.72;;;21.41;92.85
12172;BME280;6149;52.418;13.668;2022-08-01T07:40:33;100874.56;;;21.55;92.76
12172;BME280;6149;52.418;13.668;2022-08-01T07:43:00;100877.03;;;21.86;90.67
12172;BME280;6149;52.418;13.668;2022-08-01T07:45:27;100872.88;;;22.01;89.78
12172;BME280;6149;52.418;13.668;2022-08-01T07:47:55;100878.63;;;22.16;89.20
12172;BME280;6149;52.418;13.668;2022-08-01T07:50:22;100875.97;;;22.33;88.03
12172;BME280;6149;52.418;13.668;2022-08-01T07:52:48;100869.13;;;22.39;86.20
12172;BME280;6149;52.418;13.668;2022-08-01T07:55:15;100877.38;;;22.38;85.32
12172;BME280;6149;52.418;13.668;2022-08-01T07:57:42;100871.94;;;22.47;85.31
12172;BME280;6149;52.418;13.668;2022-08-01T08:00:09;100876.25;;;22.58;86.23
12172;BME280;6149;52.418;13.668;2022-08-01T08:02:36;100880.34;;;22.62;85.70
12172;BME280;6149;52.418;13.668;2022-08-01T08:05:05;100888.03;;;22.57;84.84
12172;BME280;6149;52.418;13.668;2022-08-01T08:07:32;100888.34;;;22.54;83.38
12172;BME280;6149;52.418;13.668;2022-08-01T08:09:59;100888.94;;;22.48;83.87
12172;BME280;6149;52.418;13.668;2022-08-01T08:12:26;100888.16;;;22.38;84.63
12172;BME280;6149;52.418;13.668;2022-08-01T08:14:52;100887.03;;;22.30;84.22
12172;BME280;6149;52.418;13.668;2022-08-01T08:17:19;100895.28;;;22.29;84.65
12172;BME280;6149;52.418;13.668;2022-08-01T08:19:45;100900.59;;;22.21;85.17
12172;BME280;6149;52.418;13.668;2022-08-01T08:22:13;100899.09;;;22.09;86.52
12172;BME280;6149;52.418;13.668;2022-08-01T08:24:40;100900.53;;;22.03;87.64
12172;BME280;6149;52.418;13.668;2022-08-01T08:27:07;100900.53;;;22.03;87.46
12172;BME280;6149;52.418;13.668;2022-08-01T08:29:33;100893.28;;;22.04;87.15
12172;BME280;6149;52.418;13.668;2022-08-01T08:32:01;100897.13;;;22.01;87.58
12172;BME280;6149;52.418;13.668;2022-08-01T08:34:28;100897.13;;;22.01;87.31
12172;BME280;6149;52.418;13.668;2022-08-01T08:36:55;100903.53;;;21.90;87.11
12172;BME280;6149;52.418;13.668;2022-08-01T08:39:24;100902.50;;;21.91;87.94
12172;BME280;6149;52.418;13.668;2022-08-01T08:41:52;100898.94;;;22.00;87.17
12172;BME280;6149;52.418;13.668;2022-08-01T08:44:18;100898.53;;;22.05;87.80
12172;BME280;6149;52.418;13.668;2022-08-01T08:46:47;100902.78;;;22.08;86.63
12172;BME280;6149;52.418;13.668;2022-08-01T08:49:18;100902.06;;;22.06;86.95
12172;BME280;6149;52.418;13.668;2022-08-01T08:51:48;100915.38;;;22.07;86.36
12172;BME280;6149;52.418;13.668;2022-08-01T08:54:16;100915.69;;;22.04;86.43
12172;BME280;6149;52.418;13.668;2022-08-01T08:56:47;100926.03;;;22.09;84.28
12172;BME280;6149;52.418;13.668;2022-08-01T08:59:15;100934.41;;;22.06;83.16
12172;BME280;6149;52.418;13.668;2022-08-01T09:01:42;100934.81;;;22.01;83.16
12172;BME280;6149;52.418;13.668;2022-08-01T09:04:09;100938.91;;;21.95;83.70
12172;BME280;6149;52.418;13.668;2022-08-01T09:06:37;100945.22;;;21.86;84.15
12172;BME280;6149;52.418;13.668;2022-08-01T09:09:05;100940.13;;;21.83;84.28
12172;BME280;6149;52.418;13.668;2022-08-01T09:11:34;100940.56;;;21.79;83.67
12172;BME280;6149;52.418;13.668;2022-08-01T09:14:04;100939.13;;;21.75;83.57
12172;BME280;6149;52.418;13.668;2022-08-01T09:16:32;100941.25;;;21.71;84.24
12172;BME280;6149;52.418;13.668;2022-08-01T09:19:13;100945.50;;;21.74;83.95
12172;BME280;6149;52.418;13.668;2022-08-01T09:21:56;100935.00;;;21.90;83.04
12172;BME280;6149;52.418;13.668;2022-08-01T09:24:24;100936.94;;;22.07;83.82
12172;BME280;6149;52.418;13.668;2022-08-01T09:26:52;100941.25;;;22.27;82.26
12172;BME280;6149;52.418;13.668;2022-08-01T09:29:23;100945.09;;;22.52;81.74
12172;BME280;6149;52.418;13.668;2022-08-01T09:31:55;100946.13;;;22.69;78.99
12172;BME280;6149;52.418;13.668;2022-08-01T09:34:25;100953.19;;;22.80;78.48
12172;BME280;6149;52.418;13.668;2022-08-01T09:36:54;100949.44;;;22.90;77.44
12172;BME280;6149;52.418;13.668;2022-08-01T09:39:23;100949.28;;;22.92;76.72
12172;BME280;6149;52.418;13.668;2022-08-01T09:41:51;100965.78;;;22.89;76.85
12172;BME280;6149;52.418;13.668;2022-08-01T09:44:18;100956.44;;;22.83;76.59
12172;BME280;6149;52.418;13.668;2022-08-01T09:46:51;100964.53;;;22.83;75.87
12172;BME280;6149;52.418;13.668;2022-08-01T09:49:30;100962.97;;;22.81;76.41
12172;BME280;6149;52.418;13.668;2022-08-01T09:52:09;100966.22;;;22.84;75.36
12172;BME280;6149;52.418;13.668;2022-08-01T09:54:37;100968.16;;;22.92;75.00
12172;BME280;6149;52.418;13.668;2022-08-01T09:57:09;100964.88;;;22.98;74.69
12172;BME280;6149;52.418;13.668;2022-08-01T09:59:40;100969.63;;;22.86;74.30
12172;BME280;6149;52.418;13.668;2022-08-01T10:02:10;100975.16;;;22.85;74.35
12172;BME280;6149;52.418;13.668;2022-08-01T10:04:46;100971.78;;;22.73;74.19
12172;BME280;6149;52.418;13.668;2022-08-01T10:07:14;100978.09;;;22.64;74.65
12172;BME280;6149;52.418;13.668;2022-08-01T10:09:42;100976.06;;;22.66;74.11
12172;BME280;6149;52.418;13.668;2022-08-01T10:12:09;100974.56;;;22.63;74.13
12172;BME280;6149;52.418;13.668;2022-08-01T10:14:39;100975.00;;;22.59;74.80
12172;BME280;6149;52.418;13.668;2022-08-01T10:17:07;100979.78;;;22.65;75.20
12172;BME280;6149;52.418;13.668;2022-08-01T10:19:39;100973.09;;;22.69;75.04
12172;BME280;6149;52.418;13.668;2022-08-01T10:22:08;100979.44;;;22.78;74.20
12172;BME280;6149;52.418;13.668;2022-08-01T10:24:37;100971.88;;;22.91;73.92
12172;BME280;6149;52.418;13.668;2022-08-01T10:27:06;100977.09;;;22.92;74.20
12172;BME280;6149;52.418;13.668;2022-08-01T10:29:41;100975.41;;;22.91;73.04
12172;BME280;6149;52.418;13.668;2022-08-01T10:32:10;100974.16;;;22.86;73.67
12172;BME280;6149;52.418;13.668;2022-08-01T10:34:37;100979.56;;;22.76;73.50
12172;BME280;6149;52.418;13.668;2022-08-01T10:37:05;100980.56;;;22.75;74.50
12172;BME280;6149;52.418;13.668;2022-08-01T10:39:33;100975.78;;;22.69;74.64
12172;BME280;6149;52.418;13.668;2022-08-01T10:42:00;100986.19;;;22.64;74.91
12172;BME280;6149;52.418;13.668;2022-08-01T10:44:30;100980.63;;;22.65;75.11
12172;BME280;6149;52.418;13.668;2022-08-01T10:47:02;100987.38;;;22.52;75.46
12172;BME280;6149;52.418;13.668;2022-08-01T10:49:36;100990.94;;;22.52;75.90
12172;BME280;6149;52.418;13.668;2022-08-01T10:52:07;100984.66;;;22.61;76.24
12172;BME280;6149;52.418;13.668;2022-08-01T10:54:38;100982.88;;;22.70;75.63
12172;BME280;6149;52.418;13.668;2022-08-01T10:57:06;100996.06;;;22.73;74.53
12172;BME280;6149;52.418;13.668;2022-08-01T10:59:34;100990.09;;;22.79;75.15
12172;BME280;6149;52.418;13.668;2022-08-01T11:02:05;100994.59;;;22.88;73.93
12172;BME280;6149;52.418;13.668;2022-08-01T11:04:41;100989.75;;;22.92;74.53
12172;BME280;6149;52.418;13.668;2022-08-01T11:07:22;100998.69;;;22.92;73.37
12172;BME280;6149;52.418;13.668;2022-08-01T11:10:03;101003.97;;;22.84;74.13
12172;BME280;6149;52.418;13.668;2022-08-01T11:12:37;101005.13;;;22.72;73.72
12172;BME280;6149;52.418;13.668;2022-08-01T11:15:19;100998.91;;;22.72;75.21
12172;BME280;6149;52.418;13.668;2022-08-01T11:17:57;101003.59;;;22.79;75.09
12172;BME280;6149;52.418;13.668;2022-08-01T11:20:27;101017.28;;;22.95;73.78
12172;BME280;6149;52.418;13.668;2022-08-01T11:23:23;101009.63;;;23.09;72.74
12172;BME280;6149;52.418;13.668;2022-08-01T11:26:20;101007.03;;;22.99;73.60
12172;BME280;6149;52.418;13.668;2022-08-01T11:29:16;101021.72;;;23.05;73.02
12172;BME280;6149;52.418;13.668;2022-08-01T11:31:44;101015.34;;;23.06;73.24
12172;BME280;6149;52.418;13.668;2022-08-01T11:34:11;101023.97;;;23.09;73.17
12172;BME280;6149;52.418;13.668;2022-08-01T11:36:39;101018.56;;;23.09;72.81
12172;BME280;6149;52.418;13.668;2022-08-01T11:39:14;101023.91;;;23.19;73.10
12172;BME280;6149;52.418;13.668;2022-08-01T11:41:44;101027.47;;;23.19;71.86
12172;BME280;6149;52.418;13.668;2022-08-01T11:44:16;101026.22;;;23.14;72.24
12172;BME280;6149;52.418;13.668;2022-08-01T11:46:52;101013.66;;;23.22;72.20
12172;BME280;6149;52.418;13.668;2022-08-01T11:49:25;101019.38;;;23.19;72.21
12172;BME280;6149;52.418;13.668;2022-08-01T11:52:05;101017.53;;;23.38;71.84
12172;BME280;6149;52.418;13.668;2022-08-01T11:54:34;101023.09;;;23.36;71.11
12172;BME280;6149;52.418;13.668;2022-08-01T11:57:03;101032.34;;;23.33;70.88
12172;BME280;6149;52.418;13.668;2022-08-01T11:59:36;101020.00;;;23.31;71.45
12172;BME280;6149;52.418;13.668;2022-08-01T12:02:15;101033.25;;;23.24;71.52
12172;BME280;6149;52.418;13.668;2022-08-01T12:04:53;101026.91;;;23.16;71.23
12172;BME280;6149;52.418;13.668;2022-08-01T12:07:23;101039.31;;;23.09;72.79
12172;BME280;6149;52.418;13.668;2022-08-01T12:09:59;101039.91;;;23.02;72.46
12172;BME280;6149;52.418;13.668;2022-08-01T12:12:28;101043.25;;;22.96;73.99
12172;BME280;6149;52.418;13.668;2022-08-01T12:14:57;101056.53;;;22.71;76.72
12172;BME280;6149;52.418;13.668;2022-08-01T12:17:31;101058.59;;;22.59;78.70
12172;BME280;6149;52.418;13.668;2022-08-01T12:19:59;101056.75;;;22.50;79.61
12172;BME280;6149;52.418;13.668;2022-08-01T12:22:28;101066.03;;;22.28;81.37
12172;BME280;6149;52.418;13.668;2022-08-01T12:24:55;101065.09;;;22.10;83.87
12172;BME280;6149;52.418;13.668;2022-08-01T12:27:27;101071.44;;;21.99;84.89
12172;BME280;6149;52.418;13.668;2022-08-01T12:29:55;101062.94;;;21.94;85.57
12172;BME280;6149;52.418;13.668;2022-08-01T12:32:24;101061.56;;;21.90;85.74
12172;BME280;6149;52.418;13.668;2022-08-01T12:34:54;101055.16;;;21.91;85.77
12172;BME280;6149;52.418;13.668;2022-08-01T12:37:23;101065.81;;;22.02;85.87
12172;BME280;6149;52.418;13.668;2022-08-01T12:39:51;101057.00;;;22.10;84.51
12172;BME280;6149;52.418;13.668;2022-08-01T12:42:18;101050.75;;;22.19;83.12
12172;BME280;6149;52.418;13.668;2022-08-01T12:44:48;101054.09;;;22.40;81.46
12172;BME280;6149;52.418;13.668;2022-08-01T12:47:18;101064.56;;;22.53;80.75
12172;BME280;6149;52.418;13.668;2022-08-01T12:49:45;101053.28;;;22.67;77.92
12172;BME280;6149;52.418;13.668;2022-08-01T12:52:14;101050.81;;;22.83;78.94
12172;BME280;6149;52.418;13.668;2022-08-01T12:55:04;101048.63;;;22.96;75.52
12172;BME280;6149;52.418;13.668;2022-08-01T12:57:37;101044.81;;;23.17;75.71
12172;BME280;6149;52.418;13.668;2022-08-01T13:00:10;101054.94;;;23.32;75.16
12172;BME280;6149;52.418;13.668;2022-08-01T13:02:40;101054.09;;;23.50;72.08